Большое Токко

Карта отелей и гостиниц, располагающихся рядом с аэропортом Большое Токко :

Большое Токко Хабаровский край 56° 10' 22.6812" N, 131° 0' 38.52" E
Большое Токко Хабаровский край 56° 10' 22.6812" N, 131° 0' 38.52" E
Код аэродрома ИКАО: 
HA89
Код аэродрома RU: 
ХА89
Координаты: 
N56.17297° E131.01070°
Превышение над уровнем моря : 
848
Основная полоса: 
04/22
Курс магнитный: 
036,8/216,8
Длина основной ВПП: 
1000
Ширина основной ВПП: 
45
Покрытие основной ВПП: 
Нетвёрдое (грунт)
Освещение ВПП: 
Нет
Тип: 
Аэродром
Класс аэродрома: 
Принадлежность: 
ГА
Статус: 
Недействующий
Сайт: 
E-mail аэродрома: 
Страна: 
Россия
Регион: 
Хабаровский край
Город: 
Дополнительная информация: 
Горный. ГВПП поросла. Для посадки самолетов малопригоден.

Найти трансфер

С помощью этой формы Вы можете найти трансфер из аэропорта Большое Токко в город, аэропорт или вокзал:

Карта места

Javascript is required to view this map.

Погода в аэропортах:

Авиационная погода в Толмачево

Регион: 
Погода METAR: 
UNNT 241400Z 19004MPS 9999 -SHRA BKN038CB 07/06 Q1000 R25/290160 R16/290160 NOSIG RMK QFE740/0987
Время наблюдения: 
2020-09-24T14:00:00Z
Температура C: 
7.0
Точка росы: 
6.0
Направление ветра: 
190
Скорость ветра (узлы): 
8
Метеорологическая видимость: 
6.21
Явления погоды: 
-SHRA
Условия полета: 
VFR
Аэропорт подробнее: 

Авиационная погода в аэропорту Алыкель

Регион: 
Погода METAR: 
UOOO 241400Z 12002MPS 9999 -RA BKN033 06/05 Q1010 R01/29//50 NOSIG RMK QFE742/0990
Время наблюдения: 
2020-09-24T14:00:00Z
Температура C: 
6.0
Точка росы: 
5.0
Направление ветра: 
120
Скорость ветра (узлы): 
4
Метеорологическая видимость: 
6.21
Явления погоды: 
-RA
Условия полета: 
VFR
Аэропорт подробнее: 

Авиационная погода в аэропорту Центральный

Регион: 
Погода METAR: 
UNOO 241400Z 34008G14MPS 9999 -SHRA BKN013 BKN033CB 07/05 Q1008 R25/290050 NOSIG RMK QFE748
Время наблюдения: 
2020-09-24T14:00:00Z
Температура C: 
7.0
Точка росы: 
5.0
Направление ветра: 
340
Скорость ветра (узлы): 
16
Метеорологическая видимость: 
6.21
Явления погоды: 
-SHRA
Условия полета: 
MVFR
Аэропорт подробнее: 

Авиационная погода в Игнатьево

Регион: 
Погода METAR: 
UHBB 241400Z 26001MPS 7000 0550N PRFG NSC 09/09 Q1018 R36/290250 TEMPO 0700 FG RMK QFE746/0994
Время наблюдения: 
2020-09-24T14:00:00Z
Температура C: 
9.0
Точка росы: 
9.0
Направление ветра: 
260
Скорость ветра (узлы): 
2
Метеорологическая видимость: 
4.35
Явления погоды: 
PRFG
Условия полета: 
MVFR
Аэропорт подробнее: